Time,TemperatureF,DewpointF,PressureIn,WindDirection,WindDirectionDegrees,WindSpeedMPH,WindSpeedGustMPH,Humidity,HourlyPrecipIn,Conditions,Clouds,dailyrainin,SoftwareType,DateUTC
2013-10-19 00:00:00,42.0,41.0,29.67,SW,222,0.0,1.0,96,0.00,,,0.00,weatherlink.com 1.10,2013-10-19 04:00:00,
2013-10-19 00:15:00,42.4,41.0,29.67,SW,214,1.0,3.0,96,0.00,,,0.00,weatherlink.com 1.10,2013-10-19 04:15:00,
2013-10-19 00:30:00,42.6,41.0,29.67,WSW,247,1.0,2.0,94,0.00,,,0.00,weatherlink.com 1.10,2013-10-19 04:30:00,
2013-10-19 00:45:00,42.7,41.0,29.67,WSW,244,0.0,1.0,94,0.00,,,0.00,weatherlink.com 1.10,2013-10-19 04:45:00,
2013-10-19 01:00:00,42.7,41.0,29.66,SW,214,0.0,1.0,94,0.00,,,0.00,weatherlink.com 1.10,2013-10-19 05:00:00,
2013-10-19 01:15:00,42.4,41.0,29.66,West,266,0.0,2.0,94,0.00,,,0.00,weatherlink.com 1.10,2013-10-19 05:15:00,
2013-10-19 01:30:00,42.3,41.0,29.66,WSW,254,0.0,1.0,94,0.00,,,0.00,weatherlink.com 1.10,2013-10-19 05:30:00,
2013-10-19 01:45:00,42.7,41.0,29.66,West,267,1.0,3.0,94,0.00,,,0.00,weatherlink.com 1.10,2013-10-19 05:45:00,
2013-10-19 02:00:00,43.2,42.0,29.66,West,261,1.0,4.0,94,0.00,,,0.00,weatherlink.com 1.10,2013-10-19 06:00:00,
2013-10-19 02:15:00,43.6,42.0,29.65,WSW,257,0.0,4.0,94,0.00,,,0.00,weatherlink.com 1.10,2013-10-19 06:15:00,
2013-10-19 02:30:00,43.7,42.0,29.65,WSW,254,0.0,6.0,94,0.00,,,0.00,weatherlink.com 1.10,2013-10-19 06:30:00,
2013-10-19 02:45:00,43.6,42.0,29.64,WSW,248,0.0,2.0,95,0.00,,,0.00,weatherlink.com 1.10,2013-10-19 06:45:00,
2013-10-19 03:00:00,43.5,42.0,29.64,SW,225,0.0,2.0,95,0.00,,,0.00,weatherlink.com 1.10,2013-10-19 07:00:00,
2013-10-19 03:15:00,43.5,42.0,29.64,WNW,287,0.0,0.0,95,0.00,,,0.00,weatherlink.com 1.10,2013-10-19 07:15:00,
2013-10-19 03:30:00,43.2,42.0,29.64,WNW,283,0.0,0.0,95,0.00,,,0.00,weatherlink.com 1.10,2013-10-19 07:30:00,
2013-10-19 03:45:00,42.7,41.0,29.64,WSW,240,0.0,1.0,95,0.00,,,0.00,weatherlink.com 1.10,2013-10-19 07:45:00,
2013-10-19 04:00:00,42.5,42.0,29.63,West,264,0.0,1.0,96,0.00,,,0.00,weatherlink.com 1.10,2013-10-19 08:00:00,
2013-10-19 04:15:00,42.5,41.0,29.63,SSW,200,0.0,1.0,95,0.00,,,0.00,weatherlink.com 1.10,2013-10-19 08:15:00,
2013-10-19 04:30:00,42.6,41.0,29.63,SSW,197,0.0,0.0,95,0.00,,,0.00,weatherlink.com 1.10,2013-10-19 08:30:00,
2013-10-19 04:45:00,42.6,41.0,29.63,WSW,238,0.0,1.0,95,0.00,,,0.00,weatherlink.com 1.10,2013-10-19 08:45:00,
2013-10-19 05:00:00,42.7,41.0,29.63,WSW,248,0.0,1.0,95,0.00,,,0.00,weatherlink.com 1.10,2013-10-19 09:00:00,
2013-10-19 05:15:00,42.9,41.0,29.62,West,276,0.0,1.0,94,0.00,,,0.00,weatherlink.com 1.10,2013-10-19 09:15:00,
2013-10-19 05:30:00,42.8,42.0,29.62,West,274,0.0,0.0,95,0.00,,,0.00,weatherlink.com 1.10,2013-10-19 09:30:00,
2013-10-19 05:45:00,42.8,42.0,29.62,West,276,0.0,0.0,95,0.00,,,0.00,weatherlink.com 1.10,2013-10-19 09:45:00,
2013-10-19 06:00:00,42.8,42.0,29.62,SSW,198,0.0,1.0,95,0.00,,,0.00,weatherlink.com 1.10,2013-10-19 10:00:00,
2013-10-19 06:15:00,42.8,42.0,29.62,SSW,198,0.0,0.0,95,0.00,,,0.00,weatherlink.com 1.10,2013-10-19 10:15:00,
2013-10-19 06:30:00,42.6,42.0,29.62,SSW,198,0.0,0.0,96,0.00,,,0.00,weatherlink.com 1.10,2013-10-19 10:30:00,
2013-10-19 06:45:00,42.4,41.0,29.61,SSW,198,0.0,0.0,96,0.00,,,0.00,weatherlink.com 1.10,2013-10-19 10:45:00,
2013-10-19 07:00:00,42.2,41.0,29.61,WSW,257,0.0,0.0,96,0.00,,,0.00,weatherlink.com 1.10,2013-10-19 11:00:00,
2013-10-19 07:15:00,42.0,41.0,29.61,WSW,243,0.0,2.0,96,0.00,,,0.00,weatherlink.com 1.10,2013-10-19 11:15:00,
2013-10-19 07:30:00,41.9,41.0,29.60,WSW,240,1.0,1.0,95,0.00,,,0.00,weatherlink.com 1.10,2013-10-19 11:30:00,
2013-10-19 07:45:00,41.7,40.0,29.60,WSW,248,0.0,1.0,95,0.00,,,0.00,weatherlink.com 1.10,2013-10-19 11:45:00,
2013-10-19 08:00:00,41.3,40.0,29.60,WSW,257,0.0,1.0,96,0.00,,,0.00,weatherlink.com 1.10,2013-10-19 12:00:00,
2013-10-19 08:15:00,41.2,40.0,29.60,WSW,255,0.0,1.0,96,0.00,,,0.00,weatherlink.com 1.10,2013-10-19 12:15:00,
2013-10-19 08:30:00,41.2,40.0,29.60,WSW,256,0.0,1.0,96,0.01,,,0.01,weatherlink.com 1.10,2013-10-19 12:30:00,
2013-10-19 08:46:00,41.2,40.0,29.60,WSW,255,0.0,1.0,96,0.01,,,0.01,weatherlink.com 1.10,2013-10-19 12:46:00,
2013-10-19 09:01:00,41.5,41.0,29.61,WSW,248,0.0,2.0,97,0.01,,,0.01,weatherlink.com 1.10,2013-10-19 13:01:00,
2013-10-19 09:16:00,41.8,41.0,29.61,WSW,256,0.0,2.0,96,0.01,,,0.01,weatherlink.com 1.10,2013-10-19 13:16:00,
2013-10-19 09:31:00,42.2,41.0,29.61,West,266,0.0,1.0,96,0.00,,,0.01,weatherlink.com 1.10,2013-10-19 13:31:00,
2013-10-19 09:46:00,42.9,42.0,29.61,WSW,256,0.0,2.0,96,0.00,,,0.01,weatherlink.com 1.10,2013-10-19 13:46:00,
2013-10-19 10:16:00,44.3,42.0,29.60,West,281,0.0,4.0,93,0.00,,,0.01,weatherlink.com 1.10,2013-10-19 14:16:00,
2013-10-19 10:31:00,44.8,43.0,29.60,WSW,257,0.0,4.0,92,0.00,,,0.01,weatherlink.com 1.10,2013-10-19 14:31:00,
2013-10-19 10:46:00,45.5,43.0,29.60,West,267,0.0,3.0,92,0.00,,,0.01,weatherlink.com 1.10,2013-10-19 14:46:00,
2013-10-19 11:01:00,45.9,43.0,29.60,WSW,245,2.0,5.0,90,0.00,,,0.01,weatherlink.com 1.10,2013-10-19 15:01:00,
2013-10-19 11:16:00,46.3,42.0,29.60,WNW,293,4.0,8.0,86,0.00,,,0.01,weatherlink.com 1.10,2013-10-19 15:16:00,
2013-10-19 11:31:00,47.2,43.0,29.59,NW,326,0.0,5.0,85,0.00,,,0.01,weatherlink.com 1.10,2013-10-19 15:31:00,
2013-10-19 11:46:00,47.4,43.0,29.59,NW,308,5.0,7.0,83,0.00,,,0.01,weatherlink.com 1.10,2013-10-19 15:46:00,
2013-10-19 12:01:00,46.7,40.0,29.59,NNW,344,2.0,10.0,78,0.00,,,0.01,weatherlink.com 1.10,2013-10-19 16:01:00,
2013-10-19 12:16:00,46.7,40.0,29.58,South,188,1.0,8.0,77,0.00,,,0.01,weatherlink.com 1.10,2013-10-19 16:16:00,
2013-10-19 12:31:00,47.5,40.0,29.58,NW,317,1.0,7.0,74,0.00,,,0.01,weatherlink.com 1.10,2013-10-19 16:31:00,
2013-10-19 12:46:00,48.1,40.0,29.57,WNW,293,5.0,9.0,73,0.00,,,0.01,weatherlink.com 1.10,2013-10-19 16:46:00,
2013-10-19 13:01:00,47.9,40.0,29.57,NW,306,4.0,9.0,74,0.00,,,0.01,weatherlink.com 1.10,2013-10-19 17:01:00,
2013-10-19 13:16:00,48.4,41.0,29.57,WNW,288,0.0,9.0,75,0.00,,,0.01,weatherlink.com 1.10,2013-10-19 17:16:00,
2013-10-19 13:31:00,48.4,40.0,29.56,WSW,243,2.0,11.0,74,0.00,,,0.01,weatherlink.com 1.10,2013-10-19 17:31:00,
2013-10-19 13:46:00,49.2,38.0,29.56,SW,231,5.0,9.0,66,0.00,,,0.01,weatherlink.com 1.10,2013-10-19 17:46:00,
2013-10-19 14:01:00,49.8,38.0,29.55,West,278,6.0,11.0,64,0.00,,,0.01,weatherlink.com 1.10,2013-10-19 18:01:00,
2013-10-19 14:16:00,49.7,37.0,29.55,NNW,330,5.0,14.0,63,0.00,,,0.01,weatherlink.com 1.10,2013-10-19 18:16:00,
2013-10-19 14:31:00,48.1,39.0,29.55,West,259,3.0,11.0,70,0.00,,,0.01,weatherlink.com 1.10,2013-10-19 18:31:00,
2013-10-19 14:46:00,48.8,40.0,29.55,NNW,333,7.0,10.0,71,0.00,,,0.01,weatherlink.com 1.10,2013-10-19 18:46:00,
2013-10-19 15:01:00,49.3,37.0,29.54,WNW,289,3.0,10.0,64,0.00,,,0.01,weatherlink.com 1.10,2013-10-19 19:01:00,
2013-10-19 15:16:00,49.7,36.0,29.54,WSW,256,4.0,13.0,60,0.00,,,0.01,weatherlink.com 1.10,2013-10-19 19:16:00,
2013-10-19 15:31:00,49.5,33.0,29.54,WNW,283,4.0,13.0,54,0.00,,,0.01,weatherlink.com 1.10,2013-10-19 19:31:00,
2013-10-19 15:46:00,49.5,34.0,29.54,NNW,336,5.0,12.0,56,0.00,,,0.01,weatherlink.com 1.10,2013-10-19 19:46:00,
2013-10-19 16:01:00,49.8,34.0,29.54,SSW,205,2.0,13.0,55,0.00,,,0.01,weatherlink.com 1.10,2013-10-19 20:01:00,
2013-10-19 16:16:00,49.5,34.0,29.54,NW,304,4.0,13.0,56,0.00,,,0.01,weatherlink.com 1.10,2013-10-19 20:16:00,
2013-10-19 16:31:00,49.7,35.0,29.54,NNW,338,5.0,8.0,58,0.00,,,0.01,weatherlink.com 1.10,2013-10-19 20:31:00,
2013-10-19 16:46:00,49.3,36.0,29.54,WNW,296,4.0,9.0,60,0.00,,,0.01,weatherlink.com 1.10,2013-10-19 20:46:00,
2013-10-19 17:01:00,49.1,35.0,29.54,NW,307,6.0,11.0,59,0.00,,,0.01,weatherlink.com 1.10,2013-10-19 21:01:00,
2013-10-19 17:16:00,47.9,35.0,29.55,West,259,1.0,9.0,61,0.00,,,0.01,weatherlink.com 1.10,2013-10-19 21:16:00,
2013-10-19 17:31:00,46.5,35.0,29.55,NNW,334,5.0,5.0,64,0.00,,,0.01,weatherlink.com 1.10,2013-10-19 21:31:00,
2013-10-19 17:46:00,45.8,35.0,29.56,NW,326,0.0,5.0,66,0.00,,,0.01,weatherlink.com 1.10,2013-10-19 21:46:00,
2013-10-19 18:01:00,45.2,35.0,29.56,West,273,1.0,5.0,68,0.00,,,0.01,weatherlink.com 1.10,2013-10-19 22:01:00,
2013-10-19 18:16:00,44.5,35.0,29.56,WNW,295,0.0,4.0,70,0.00,,,0.01,weatherlink.com 1.10,2013-10-19 22:16:00,
2013-10-19 18:31:00,43.7,36.0,29.56,West,269,1.0,2.0,73,0.00,,,0.01,weatherlink.com 1.10,2013-10-19 22:31:00,
2013-10-19 18:46:00,42.4,36.0,29.57,West,272,0.0,0.0,77,0.00,,,0.01,weatherlink.com 1.10,2013-10-19 22:46:00,
2013-10-19 19:01:00,40.6,35.0,29.57,West,273,0.0,0.0,81,0.00,,,0.01,weatherlink.com 1.10,2013-10-19 23:01:00,
2013-10-19 19:16:00,39.2,35.0,29.57,West,269,0.0,0.0,83,0.00,,,0.01,weatherlink.com 1.10,2013-10-19 23:16:00,
2013-10-19 19:32:00,38.1,34.0,29.58,WSW,253,0.0,1.0,86,0.00,,,0.01,weatherlink.com 1.10,2013-10-19 23:32:00,
2013-10-19 19:47:00,37.3,34.0,29.58,SW,229,0.0,1.0,88,0.00,,,0.01,weatherlink.com 1.10,2013-10-19 23:47:00,
2013-10-19 20:02:00,37.2,34.0,29.58,SW,232,0.0,1.0,89,0.00,,,0.01,weatherlink.com 1.10,2013-10-20 00:02:00,
2013-10-19 20:32:00,36.7,34.0,29.59,West,259,0.0,0.0,91,0.00,,,0.01,weatherlink.com 1.10,2013-10-20 00:32:00,
2013-10-19 20:47:00,36.1,34.0,29.59,West,259,0.0,0.0,91,0.00,,,0.01,weatherlink.com 1.10,2013-10-20 00:47:00,
2013-10-19 21:02:00,35.6,34.0,29.59,West,259,0.0,0.0,92,0.00,,,0.01,weatherlink.com 1.10,2013-10-20 01:02:00,
2013-10-19 21:17:00,35.6,34.0,29.59,West,259,0.0,1.0,92,0.00,,,0.01,weatherlink.com 1.10,2013-10-20 01:17:00,
2013-10-19 21:32:00,35.0,33.0,29.59,West,264,0.0,1.0,92,0.00,,,0.01,weatherlink.com 1.10,2013-10-20 01:32:00,
2013-10-19 21:47:00,34.4,33.0,29.59,West,261,0.0,0.0,93,0.00,,,0.01,weatherlink.com 1.10,2013-10-20 01:47:00,
2013-10-19 22:02:00,33.7,32.0,29.59,WSW,256,0.0,1.0,93,0.00,,,0.01,weatherlink.com 1.10,2013-10-20 02:02:00,
2013-10-19 22:17:00,33.6,32.0,29.59,WSW,252,0.0,1.0,93,0.00,,,0.01,weatherlink.com 1.10,2013-10-20 02:17:00,
2013-10-19 22:32:00,33.6,32.0,29.60,WSW,252,0.0,1.0,93,0.00,,,0.01,weatherlink.com 1.10,2013-10-20 02:32:00,
2013-10-19 22:47:00,33.5,32.0,29.59,WSW,256,1.0,1.0,94,0.00,,,0.01,weatherlink.com 1.10,2013-10-20 02:47:00,
2013-10-19 23:02:00,32.9,31.0,29.60,WSW,252,0.0,1.0,94,0.00,,,0.01,weatherlink.com 1.10,2013-10-20 03:02:00,
2013-10-19 23:17:00,33.1,32.0,29.60,WSW,240,0.0,1.0,94,0.00,,,0.01,weatherlink.com 1.10,2013-10-20 03:17:00,
2013-10-19 23:32:00,33.7,32.0,29.60,SW,214,0.0,3.0,94,0.00,,,0.01,weatherlink.com 1.10,2013-10-20 03:32:00,
2013-10-19 23:47:00,34.5,33.0,29.60,SSW,207,0.0,1.0,94,0.00,,,0.01,weatherlink.com 1.10,2013-10-20 03:47:00,